aviador You're here:

KFAY Decoded Metar

FAYETTEVILLE in NC, USA
Report Time2017-11-23 21:53:00
UTC Time2017-11-23 22:21:31
Flight Rules vfr VFR
Wind050° at 03 kt
W.Decomp.*RWY 04: 2.9 kt HW 0.9 kt RCW
RWY 10: 2.2 kt HW 2 kt LCW
W.Rank050° ranks 14
Current wind is below 050° avg. (5.7)
Visibility9999 m
Phenomena:N/A
Clouds:N/A
Expected CloudBase > 2,800 ft AGL from Temp-Dew spread
CeilingNone
Temp08°C (ISA -7)
Dew Point01°C (62% RH)
AAT5.1°C
QNH1018 hPa
Density Alt-696 ft
Elevation180 ft
Report Wrong Elevation
Raw Report
METAR KFAY 232153Z 05003KT 10SM CLR 08/01 A3005 RMK AO2 SLP171 T00780011=

Extra information for KFAY:More info

Metar Taf Metar & Taf Last 4 Metars F.Rules Stats Wind Profile Meteogram Temp Stats Airport Information Weather charts Add Link Nearby VenuesMetar ALERT Operation Metar Decoded Social comments

AIRNAV info for KFAY